Time;durP1;ratioP1;P1;durP2;ratioP2;P2;SDS_P1;SDS_P2;PMS_P1;PMS_P2;Temp;Humidity;BMP_temperature;BMP_pressure;BME280_temperature;BME280_humidity;BME280_pressure;Samples;Min_cycle;Max_cycle;Signal;HPM_P1;HPM_P2
2023/01/09 00:02:07;;;;;;;;;;;6.00;99.90;;;;;;4857376;29;19930;-70
2023/01/09 00:04:33;;;;;;;;;;;5.90;99.90;;;;;;4859161;29;20023;-70
2023/01/09 00:06:59;;;;;;;;;;;5.90;99.90;;;;;;4855907;29;19928;-70
2023/01/09 00:09:24;;;;;;;;;;;6.00;99.90;;;;;;4855008;29;19924;-70
2023/01/09 00:11:51;;;;;;;;;;;6.00;99.90;;;;;;4853714;29;20424;-70
2023/01/09 00:14:17;;;;;;;;;;;6.00;99.90;;;;;;4865757;29;20412;-70
2023/01/09 00:16:42;;;;;;;;;;;5.90;99.90;;;;;;4855961;29;19975;-70
2023/01/09 00:19:08;;;;;;;;;;;5.90;99.90;;;;;;4858993;29;20341;-70
2023/01/09 00:21:34;;;;;;;;;;;5.90;99.90;;;;;;4841952;29;19927;-70
2023/01/09 00:24:00;;;;;;;;;;;5.90;99.90;;;;;;4842810;29;19935;-70
2023/01/09 00:26:25;;;;;;;;;;;5.90;99.90;;;;;;4859353;29;20288;-69
2023/01/09 00:28:52;;;;;;;;;;;5.90;99.90;;;;;;4860014;29;19931;-69
2023/01/09 00:31:19;;;;;;;;;;;5.90;99.90;;;;;;4843667;29;19928;-69
2023/01/09 00:33:51;;;;;;;;;;;5.90;99.90;;;;;;4855903;29;20023;-69
2023/01/09 00:36:17;;;;;;;;;;;5.90;99.90;;;;;;4843585;29;20276;-69
2023/01/09 00:38:42;;;;;;;;;;;6.00;99.90;;;;;;4844183;29;19928;-69
2023/01/09 00:41:11;;;;;;;;;;;6.10;99.90;;;;;;4843073;29;19928;-70
2023/01/09 00:43:42;;;;;;;;;;;6.10;99.90;;;;;;4840265;29;19924;-70
2023/01/09 00:46:08;;;;;;;;;;;6.20;99.90;;;;;;4839548;29;19980;-70
2023/01/09 00:48:36;;;;;;;;;;;6.30;99.90;;;;;;4859985;29;19924;-70
2023/01/09 00:51:02;;;;;;;;;;;6.30;99.90;;;;;;4855536;29;20780;-70
2023/01/09 00:53:30;;;;;;;;;;;6.40;99.90;;;;;;4859869;29;19931;-70
2023/01/09 00:56:00;;;;;;;;;;;6.40;99.90;;;;;;4845158;29;20022;-70
2023/01/09 00:58:26;;;;;;;;;;;6.40;99.90;;;;;;4861880;29;20013;-70
2023/01/09 01:00:52;;;;;;;;;;;6.50;99.90;;;;;;4859190;29;19935;-70
2023/01/09 01:03:17;;;;;;;;;;;6.40;99.90;;;;;;4846869;29;19955;-70
2023/01/09 01:08:27;;;;;;;;;;;6.40;99.90;;;;;;4867139;29;19987;-70
2023/01/09 01:10:53;;;;;;;;;;;6.40;99.90;;;;;;4862373;29;19931;-70
2023/01/09 01:13:18;;;;;;;;;;;6.40;99.90;;;;;;4830248;29;20150;-70
2023/01/09 01:15:45;;;;;;;;;;;6.40;99.90;;;;;;4861785;29;20014;-70
2023/01/09 01:18:11;;;;;;;;;;;6.40;99.90;;;;;;4864028;29;19938;-70
2023/01/09 01:20:41;;;;;;;;;;;6.40;99.90;;;;;;4862803;29;19966;-70
2023/01/09 01:23:06;;;;;;;;;;;6.40;99.90;;;;;;4861895;29;20282;-70
2023/01/09 01:25:34;;;;;;;;;;;6.40;99.90;;;;;;4847654;29;19928;-70
2023/01/09 01:28:00;;;;;;;;;;;6.40;99.90;;;;;;4845416;29;19967;-70
2023/01/09 01:30:26;;;;;;;;;;;6.40;99.90;;;;;;4859913;29;19924;-70
2023/01/09 01:32:52;;;;;;;;;;;6.30;99.90;;;;;;4860780;29;20019;-70
2023/01/09 01:35:17;;;;;;;;;;;6.20;99.90;;;;;;4863764;29;19975;-70
2023/01/09 01:37:43;;;;;;;;;;;6.10;99.90;;;;;;4860813;29;19924;-70
2023/01/09 01:40:10;;;;;;;;;;;6.10;99.90;;;;;;4844363;29;19978;-70
2023/01/09 01:42:36;;;;;;;;;;;6.00;99.90;;;;;;4871520;29;19927;-70
2023/01/09 01:45:05;;;;;;;;;;;5.90;99.90;;;;;;4864483;29;19951;-70
2023/01/09 01:47:31;;;;;;;;;;;5.90;99.90;;;;;;4859728;29;20347;-70
2023/01/09 01:49:56;;;;;;;;;;;5.80;99.90;;;;;;4847199;29;19927;-70
2023/01/09 01:52:22;;;;;;;;;;;5.70;99.90;;;;;;4857229;29;20191;-70
2023/01/09 01:54:48;;;;;;;;;;;5.60;99.90;;;;;;4863540;29;19935;-70
2023/01/09 01:57:14;;;;;;;;;;;5.50;99.90;;;;;;4860361;29;19928;-70
2023/01/09 01:59:41;;;;;;;;;;;5.40;99.90;;;;;;4863201;29;19931;-70
2023/01/09 02:02:08;;;;;;;;;;;5.30;99.90;;;;;;4847611;29;20374;-70
2023/01/09 02:04:35;;;;;;;;;;;5.30;99.90;;;;;;4866086;29;19928;-70
2023/01/09 02:07:03;;;;;;;;;;;5.20;99.90;;;;;;4847328;29;19966;-70
2023/01/09 02:09:29;;;;;;;;;;;5.20;99.90;;;;;;4837782;29;19928;-70
2023/01/09 02:11:56;;;;;;;;;;;5.10;99.90;;;;;;4870727;29;19936;-70
2023/01/09 02:14:23;;;;;;;;;;;5.10;99.90;;;;;;4863870;29;20692;-70
2023/01/09 02:17:08;;;;;;;;;;;5.00;99.90;;;;;;4863654;29;19998;-70
2023/01/09 02:19:53;;;;;;;;;;;4.90;99.90;;;;;;4860182;29;19928;-70
2023/01/09 02:22:29;;;;;;;;;;;4.90;99.90;;;;;;4863855;29;19928;-70
2023/01/09 02:24:54;;;;;;;;;;;4.80;99.90;;;;;;4860948;29;19928;-70
2023/01/09 02:27:41;;;;;;;;;;;4.80;99.90;;;;;;4863839;29;19928;-70
2023/01/09 02:30:10;;;;;;;;;;;4.70;99.90;;;;;;4842683;29;19935;-69
2023/01/09 02:32:42;;;;;;;;;;;4.70;99.90;;;;;;4875510;29;19924;-70
2023/01/09 02:35:18;;;;;;;;;;;4.70;99.90;;;;;;4844428;29;19932;-70
2023/01/09 02:37:47;;;;;;;;;;;4.70;99.90;;;;;;4856648;29;19924;-70
2023/01/09 02:40:18;;;;;;;;;;;4.70;99.90;;;;;;4860667;29;20284;-70
2023/01/09 02:42:44;;;;;;;;;;;4.70;99.90;;;;;;4860855;29;19931;-70
2023/01/09 02:45:10;;;;;;;;;;;4.70;99.90;;;;;;4865352;29;20018;-70
2023/01/09 02:47:35;;;;;;;;;;;4.70;99.90;;;;;;4863523;29;19970;-70
2023/01/09 02:50:02;;;;;;;;;;;4.70;99.90;;;;;;4867885;29;19924;-70
2023/01/09 02:52:47;;;;;;;;;;;4.70;99.90;;;;;;4847902;29;20296;-70
2023/01/09 02:55:17;;;;;;;;;;;4.70;99.90;;;;;;4862228;29;19975;-70
2023/01/09 02:57:42;;;;;;;;;;;4.70;99.90;;;;;;4862340;29;19924;-70
2023/01/09 03:00:47;;;;;;;;;;;4.60;99.90;;;;;;4861327;29;19999;-70
2023/01/09 03:03:12;;;;;;;;;;;4.70;99.90;;;;;;4823240;29;19924;-69
2023/01/09 03:05:46;;;;;;;;;;;4.70;99.90;;;;;;4809339;29;20379;-69
2023/01/09 03:08:14;;;;;;;;;;;4.70;99.90;;;;;;4823958;29;19948;-70
2023/01/09 03:10:44;;;;;;;;;;;4.70;99.90;;;;;;4847013;29;19955;-69
2023/01/09 03:13:12;;;;;;;;;;;4.60;99.90;;;;;;4862043;29;20351;-70
2023/01/09 03:15:39;;;;;;;;;;;4.60;99.90;;;;;;4861427;29;19940;-70
2023/01/09 03:18:05;;;;;;;;;;;4.60;99.90;;;;;;4858075;29;19924;-70
2023/01/09 03:20:31;;;;;;;;;;;4.60;99.90;;;;;;4830572;29;20326;-70
2023/01/09 03:22:58;;;;;;;;;;;4.60;99.90;;;;;;4858893;29;19930;-70
2023/01/09 03:25:24;;;;;;;;;;;4.60;99.90;;;;;;4861188;29;19927;-70
2023/01/09 03:28:01;;;;;;;;;;;4.70;99.90;;;;;;4856760;29;19975;-70
2023/01/09 03:30:27;;;;;;;;;;;4.70;99.90;;;;;;4872977;29;19990;-70
2023/01/09 03:32:53;;;;;;;;;;;4.80;99.90;;;;;;4860548;29;19924;-70
2023/01/09 03:35:19;;;;;;;;;;;4.90;99.90;;;;;;4859069;29;20678;-70
2023/01/09 03:37:44;;;;;;;;;;;4.90;99.90;;;;;;4844205;29;19924;-70
2023/01/09 03:40:10;;;;;;;;;;;4.90;99.90;;;;;;4862577;29;19995;-70
2023/01/09 03:42:36;;;;;;;;;;;4.90;99.90;;;;;;4859530;29;20027;-70
2023/01/09 03:45:01;;;;;;;;;;;4.90;99.90;;;;;;4862447;29;19992;-70
2023/01/09 03:47:27;;;;;;;;;;;4.90;99.90;;;;;;4861824;29;20448;-70
2023/01/09 03:49:53;;;;;;;;;;;4.90;99.90;;;;;;4843314;29;19961;-70
2023/01/09 03:52:18;;;;;;;;;;;4.90;99.90;;;;;;4844143;29;19931;-70
2023/01/09 03:54:44;;;;;;;;;;;4.90;99.90;;;;;;4861561;29;20297;-70
2023/01/09 03:57:09;;;;;;;;;;;4.90;99.90;;;;;;4843793;29;19932;-70
2023/01/09 03:59:35;;;;;;;;;;;4.90;99.90;;;;;;4859800;29;19924;-70
2023/01/09 04:02:01;;;;;;;;;;;4.90;99.90;;;;;;4859012;29;19923;-70
2023/01/09 04:04:26;;;;;;;;;;;4.80;99.90;;;;;;4843405;29;19924;-70
2023/01/09 04:06:52;;;;;;;;;;;4.80;99.90;;;;;;4861064;29;19939;-70
2023/01/09 04:09:17;;;;;;;;;;;4.70;99.90;;;;;;4843171;29;20381;-70
2023/01/09 04:11:43;;;;;;;;;;;4.70;99.90;;;;;;4838885;29;20480;-70
2023/01/09 04:14:08;;;;;;;;;;;4.60;99.90;;;;;;4875391;29;19957;-70
2023/01/09 04:16:34;;;;;;;;;;;4.60;99.90;;;;;;4827567;29;19991;-70
2023/01/09 04:19:00;;;;;;;;;;;4.70;99.90;;;;;;4859787;29;19928;-70
2023/01/09 04:21:25;;;;;;;;;;;4.70;99.90;;;;;;4838357;29;19932;-70
2023/01/09 04:23:51;;;;;;;;;;;4.80;99.90;;;;;;4844075;29;19924;-70
2023/01/09 04:26:17;;;;;;;;;;;4.90;99.90;;;;;;4858395;29;19931;-70
2023/01/09 04:28:42;;;;;;;;;;;4.90;99.90;;;;;;4860178;29;19924;-70
2023/01/09 04:31:08;;;;;;;;;;;4.90;99.90;;;;;;4833793;29;19935;-70
2023/01/09 04:33:33;;;;;;;;;;;4.90;99.90;;;;;;4864794;29;19923;-70
2023/01/09 04:35:59;;;;;;;;;;;4.90;99.90;;;;;;4849340;29;19991;-70
2023/01/09 04:38:26;;;;;;;;;;;4.90;99.90;;;;;;4846445;29;19932;-70
2023/01/09 04:40:52;;;;;;;;;;;4.80;99.90;;;;;;4845019;29;19931;-70
2023/01/09 04:43:17;;;;;;;;;;;4.80;99.90;;;;;;4863034;29;19927;-70
2023/01/09 04:45:43;;;;;;;;;;;4.70;99.90;;;;;;4861309;29;19924;-70
2023/01/09 04:48:09;;;;;;;;;;;4.70;99.90;;;;;;4863581;29;19992;-70
2023/01/09 04:50:34;;;;;;;;;;;4.60;99.90;;;;;;4864165;29;19924;-70
2023/01/09 04:53:00;;;;;;;;;;;4.60;99.90;;;;;;4833925;29;20757;-70
2023/01/09 04:55:25;;;;;;;;;;;4.60;99.90;;;;;;4849131;29;19983;-70
2023/01/09 04:57:51;;;;;;;;;;;4.50;99.90;;;;;;4865007;29;19932;-70
2023/01/09 05:00:16;;;;;;;;;;;4.50;99.90;;;;;;4861487;29;19931;-70
2023/01/09 05:02:42;;;;;;;;;;;4.50;99.90;;;;;;4864145;29;19950;-70
2023/01/09 05:05:08;;;;;;;;;;;4.50;99.90;;;;;;4847154;29;20066;-70
2023/01/09 05:07:34;;;;;;;;;;;4.50;99.90;;;;;;4847495;29;20052;-70
2023/01/09 05:10:00;;;;;;;;;;;4.50;99.90;;;;;;4859446;29;20026;-70
2023/01/09 05:12:26;;;;;;;;;;;4.50;99.90;;;;;;4858580;29;20292;-71
2023/01/09 05:14:51;;;;;;;;;;;4.40;99.90;;;;;;4858872;29;19934;-70
2023/01/09 05:17:17;;;;;;;;;;;4.40;99.90;;;;;;4833092;29;20015;-70
2023/01/09 05:19:44;;;;;;;;;;;4.40;99.90;;;;;;4858742;29;19980;-70
2023/01/09 05:22:12;;;;;;;;;;;4.40;99.90;;;;;;4847581;29;19932;-70
2023/01/09 05:24:38;;;;;;;;;;;4.50;99.90;;;;;;4861084;29;19933;-70
2023/01/09 05:27:04;;;;;;;;;;;4.50;99.90;;;;;;4863652;29;20458;-70
2023/01/09 05:29:29;;;;;;;;;;;4.50;99.90;;;;;;4847766;29;19954;-70
2023/01/09 05:31:55;;;;;;;;;;;4.50;99.90;;;;;;4862930;29;19923;-70
2023/01/09 05:34:20;;;;;;;;;;;4.50;99.90;;;;;;4859998;29;19934;-70
2023/01/09 05:36:46;;;;;;;;;;;4.50;99.90;;;;;;4848424;29;19932;-70
2023/01/09 05:39:12;;;;;;;;;;;4.50;99.90;;;;;;4863107;29;20472;-70
2023/01/09 05:41:37;;;;;;;;;;;4.50;99.90;;;;;;4861302;29;19938;-70
2023/01/09 05:44:03;;;;;;;;;;;4.60;99.90;;;;;;4844923;29;19971;-70
2023/01/09 05:46:29;;;;;;;;;;;4.60;99.90;;;;;;4863768;29;19936;-70
2023/01/09 05:48:55;;;;;;;;;;;4.70;99.90;;;;;;4856469;29;19931;-70
2023/01/09 05:51:21;;;;;;;;;;;4.70;99.90;;;;;;4860925;29;19924;-70
2023/01/09 05:53:46;;;;;;;;;;;4.80;99.90;;;;;;4859885;29;19928;-70
2023/01/09 05:56:12;;;;;;;;;;;4.90;99.90;;;;;;4848394;29;19932;-70
2023/01/09 05:58:38;;;;;;;;;;;4.90;99.90;;;;;;4846612;29;19927;-71
2023/01/09 06:01:03;;;;;;;;;;;5.00;99.90;;;;;;4860437;29;19931;-71
2023/01/09 06:03:29;;;;;;;;;;;5.10;99.90;;;;;;4850071;29;19927;-70
2023/01/09 06:05:54;;;;;;;;;;;5.10;99.90;;;;;;4862633;29;19987;-70
2023/01/09 06:08:20;;;;;;;;;;;5.20;99.90;;;;;;4846909;29;19928;-70
2023/01/09 06:10:46;;;;;;;;;;;5.20;99.90;;;;;;4842960;29;20327;-70
2023/01/09 06:13:12;;;;;;;;;;;5.20;99.90;;;;;;4862996;29;19975;-70
2023/01/09 06:15:38;;;;;;;;;;;5.20;99.90;;;;;;4877741;29;20006;-70
2023/01/09 06:18:03;;;;;;;;;;;5.20;99.90;;;;;;4860702;29;19931;-70
2023/01/09 06:20:29;;;;;;;;;;;5.10;99.90;;;;;;4843504;29;19967;-70
2023/01/09 06:22:55;;;;;;;;;;;5.10;99.90;;;;;;4862146;29;19924;-70
2023/01/09 06:25:20;;;;;;;;;;;5.10;99.90;;;;;;4862142;29;19927;-71
2023/01/09 06:27:47;;;;;;;;;;;5.00;99.90;;;;;;4862891;29;19980;-71
2023/01/09 06:30:13;;;;;;;;;;;5.00;99.90;;;;;;4863118;29;19924;-71
2023/01/09 06:32:38;;;;;;;;;;;4.90;99.90;;;;;;4860957;29;19927;-70
2023/01/09 06:35:04;;;;;;;;;;;4.90;99.90;;;;;;4846041;29;19927;-70
2023/01/09 06:37:30;;;;;;;;;;;4.90;99.90;;;;;;4854991;29;19992;-70
2023/01/09 06:39:55;;;;;;;;;;;4.80;99.90;;;;;;4846201;29;19928;-70
2023/01/09 06:42:21;;;;;;;;;;;4.80;99.90;;;;;;4829073;29;21275;-70
2023/01/09 06:44:47;;;;;;;;;;;4.80;99.90;;;;;;4847379;29;19930;-70
2023/01/09 06:47:12;;;;;;;;;;;4.80;99.90;;;;;;4862337;29;19959;-70
2023/01/09 06:49:38;;;;;;;;;;;4.80;99.90;;;;;;4846892;29;20003;-70
2023/01/09 06:52:06;;;;;;;;;;;4.80;99.90;;;;;;4855522;29;20457;-71
2023/01/09 06:54:32;;;;;;;;;;;4.70;99.90;;;;;;4847172;29;19923;-71
2023/01/09 06:56:57;;;;;;;;;;;4.70;99.90;;;;;;4863020;29;19924;-71
2023/01/09 06:59:23;;;;;;;;;;;4.60;99.90;;;;;;4859554;29;19927;-71
2023/01/09 07:01:49;;;;;;;;;;;4.60;99.90;;;;;;4855352;29;20403;-71
2023/01/09 07:04:16;;;;;;;;;;;4.50;99.90;;;;;;4858776;29;20348;-71
2023/01/09 07:06:41;;;;;;;;;;;4.50;99.90;;;;;;4861590;29;20261;-71
2023/01/09 07:09:07;;;;;;;;;;;4.40;99.90;;;;;;4845198;29;19976;-71
2023/01/09 07:11:33;;;;;;;;;;;4.40;99.90;;;;;;4841587;29;19928;-71
2023/01/09 07:13:58;;;;;;;;;;;4.30;99.90;;;;;;4847160;29;19984;-71
2023/01/09 07:16:24;;;;;;;;;;;4.30;99.90;;;;;;4837319;29;19986;-71
2023/01/09 07:18:51;;;;;;;;;;;4.30;99.90;;;;;;4862246;29;20408;-72
2023/01/09 07:21:16;;;;;;;;;;;4.30;99.90;;;;;;4846295;29;19962;-72
2023/01/09 07:23:42;;;;;;;;;;;4.30;99.90;;;;;;4847410;29;19924;-72
2023/01/09 07:26:08;;;;;;;;;;;4.40;99.90;;;;;;4847866;29;19942;-72
2023/01/09 07:28:33;;;;;;;;;;;4.40;99.90;;;;;;4848747;29;19927;-72
2023/01/09 07:31:01;;;;;;;;;;;4.40;99.90;;;;;;4846964;29;19927;-71
2023/01/09 07:33:29;;;;;;;;;;;4.40;99.90;;;;;;4879946;29;20304;-72
2023/01/09 07:35:55;;;;;;;;;;;4.40;99.90;;;;;;4859913;29;19950;-72
2023/01/09 07:38:21;;;;;;;;;;;4.40;99.90;;;;;;4845548;29;20411;-72
2023/01/09 07:40:46;;;;;;;;;;;4.50;99.90;;;;;;4839603;29;20175;-71
2023/01/09 07:43:12;;;;;;;;;;;4.50;99.90;;;;;;4844170;29;19928;-72
2023/01/09 07:45:37;;;;;;;;;;;4.50;99.90;;;;;;4856052;29;19965;-72
2023/01/09 07:48:03;;;;;;;;;;;4.50;99.90;;;;;;4843159;29;20278;-72
2023/01/09 07:50:28;;;;;;;;;;;4.50;99.90;;;;;;4856829;29;19934;-72
2023/01/09 07:52:54;;;;;;;;;;;4.50;99.90;;;;;;4858477;29;20233;-72
2023/01/09 07:55:20;;;;;;;;;;;4.50;99.90;;;;;;4843327;29;20403;-72
2023/01/09 07:57:49;;;;;;;;;;;4.50;99.90;;;;;;4858107;29;19931;-72
2023/01/09 08:00:14;;;;;;;;;;;4.50;99.90;;;;;;4840566;29;19956;-71
2023/01/09 08:02:40;;;;;;;;;;;4.60;99.90;;;;;;4855348;29;19924;-71
2023/01/09 08:05:07;;;;;;;;;;;4.60;99.90;;;;;;4838368;29;19989;-71
2023/01/09 08:07:33;;;;;;;;;;;4.60;99.90;;;;;;4842455;29;19927;-71
2023/01/09 08:09:59;;;;;;;;;;;4.60;99.90;;;;;;4857492;29;20341;-71
2023/01/09 08:12:24;;;;;;;;;;;4.60;99.90;;;;;;4842779;29;19943;-71
2023/01/09 08:14:52;;;;;;;;;;;4.60;99.90;;;;;;4840492;29;20417;-71
2023/01/09 08:17:17;;;;;;;;;;;4.70;99.90;;;;;;4842138;29;19982;-71
2023/01/09 08:19:43;;;;;;;;;;;4.70;99.90;;;;;;4843679;29;19924;-71
2023/01/09 08:22:09;;;;;;;;;;;4.70;99.90;;;;;;4859119;29;19927;-71
2023/01/09 08:24:35;;;;;;;;;;;4.70;99.90;;;;;;4845800;29;19934;-71
2023/01/09 08:27:01;;;;;;;;;;;4.70;99.90;;;;;;4844895;29;19924;-71
2023/01/09 08:29:29;;;;;;;;;;;4.70;99.90;;;;;;4842688;29;19930;-71
2023/01/09 08:31:58;;;;;;;;;;;4.70;99.90;;;;;;4841218;29;19935;-71
2023/01/09 08:34:24;;;;;;;;;;;4.80;99.90;;;;;;4860446;29;20549;-71
2023/01/09 08:36:49;;;;;;;;;;;4.80;99.90;;;;;;4845056;29;19928;-71
2023/01/09 08:39:15;;;;;;;;;;;4.80;99.90;;;;;;4842097;29;19932;-71
2023/01/09 08:47:09;;;;;;;;;;;4.90;99.90;;;;;;4875486;29;19939;-71
2023/01/09 08:49:36;;;;;;;;;;;4.90;99.90;;;;;;4863844;29;19924;-71
2023/01/09 08:52:02;;;;;;;;;;;5.00;99.90;;;;;;4860657;29;19924;-71
2023/01/09 08:54:28;;;;;;;;;;;5.00;99.90;;;;;;4846928;29;19951;-71
2023/01/09 08:56:54;;;;;;;;;;;5.00;99.90;;;;;;4839980;29;19928;-72
2023/01/09 08:59:19;;;;;;;;;;;5.00;99.90;;;;;;4842312;29;19938;-72
2023/01/09 09:01:45;;;;;;;;;;;5.10;99.90;;;;;;4839762;29;20602;-72
2023/01/09 09:04:10;;;;;;;;;;;5.10;99.90;;;;;;4853017;29;19987;-71
2023/01/09 09:06:36;;;;;;;;;;;5.10;99.90;;;;;;4842369;29;19928;-71
2023/01/09 09:09:02;;;;;;;;;;;5.10;99.90;;;;;;4853175;29;19924;-71
2023/01/09 09:11:31;;;;;;;;;;;5.20;99.90;;;;;;4839187;29;19924;-71
2023/01/09 09:13:57;;;;;;;;;;;5.20;99.90;;;;;;4872727;29;20030;-72
2023/01/09 09:16:24;;;;;;;;;;;5.20;99.90;;;;;;4838555;29;20050;-72
2023/01/09 09:18:49;;;;;;;;;;;5.20;99.90;;;;;;4847319;29;19936;-72
2023/01/09 09:21:15;;;;;;;;;;;5.20;99.90;;;;;;4862882;29;20309;-72
2023/01/09 09:23:41;;;;;;;;;;;5.30;99.90;;;;;;4848032;29;20393;-72
2023/01/09 09:26:06;;;;;;;;;;;5.30;99.90;;;;;;4848875;29;19924;-72
2023/01/09 09:28:32;;;;;;;;;;;5.30;99.90;;;;;;4832744;29;19946;-72
2023/01/09 09:30:57;;;;;;;;;;;5.30;99.90;;;;;;4846702;29;20324;-71
2023/01/09 09:33:23;;;;;;;;;;;5.30;99.90;;;;;;4860912;29;19928;-71
2023/01/09 09:35:49;;;;;;;;;;;5.40;99.90;;;;;;4865344;29;19927;-71
2023/01/09 09:38:14;;;;;;;;;;;5.40;99.90;;;;;;4863494;29;19935;-71
2023/01/09 09:41:04;;;;;;;;;;;5.50;99.90;;;;;;4846249;29;19928;-71
2023/01/09 09:46:41;;;;;;;;;;;5.50;99.90;;;;;;4862262;29;19928;-73
2023/01/09 09:49:27;;;;;;;;;;;5.60;99.90;;;;;;4859407;29;20308;-71
2023/01/09 09:52:14;;;;;;;;;;;5.60;99.90;;;;;;4854815;29;20433;-71
2023/01/09 09:54:41;;;;;;;;;;;5.70;99.90;;;;;;4861352;29;19936;-71
2023/01/09 09:57:11;;;;;;;;;;;5.80;99.90;;;;;;4845326;29;20282;-71
2023/01/09 09:59:38;;;;;;;;;;;5.90;99.90;;;;;;4860104;29;19924;-71
2023/01/09 10:02:04;;;;;;;;;;;5.90;99.90;;;;;;4848064;29;19923;-71
2023/01/09 10:04:31;;;;;;;;;;;5.90;99.90;;;;;;4864259;29;19932;-72
2023/01/09 10:06:59;;;;;;;;;;;5.90;99.90;;;;;;4857325;29;19987;-71
2023/01/09 10:09:48;;;;;;;;;;;5.90;99.90;;;;;;4861203;29;19975;-71
2023/01/09 10:12:28;;;;;;;;;;;5.90;99.90;;;;;;4855016;29;19928;-72
2023/01/09 10:15:01;;;;;;;;;;;5.90;99.90;;;;;;4847944;29;19931;-71
2023/01/09 10:17:50;;;;;;;;;;;6.00;99.90;;;;;;4852321;29;20301;-72
2023/01/09 10:20:15;;;;;;;;;;;6.00;99.90;;;;;;4840955;29;19931;-71
2023/01/09 10:23:00;;;;;;;;;;;6.00;99.90;;;;;;4864083;29;19928;-71
2023/01/09 10:25:28;;;;;;;;;;;6.00;99.90;;;;;;4849088;29;19934;-72
2023/01/09 10:27:54;;;;;;;;;;;6.00;99.90;;;;;;4848404;29;19930;-72
2023/01/09 10:30:23;;;;;;;;;;;6.00;99.90;;;;;;4842460;29;20320;-72
2023/01/09 10:32:55;;;;;;;;;;;6.00;99.90;;;;;;4859622;29;19928;-72
2023/01/09 10:35:39;;;;;;;;;;;6.00;99.90;;;;;;4872632;29;20448;-72
2023/01/09 10:38:07;;;;;;;;;;;6.00;99.90;;;;;;4876660;29;19927;-72
2023/01/09 10:40:49;;;;;;;;;;;6.00;99.90;;;;;;4843642;29;20412;-72
2023/01/09 10:43:27;;;;;;;;;;;6.00;99.90;;;;;;4860693;29;19928;-72
2023/01/09 10:45:55;;;;;;;;;;;6.00;99.90;;;;;;4843325;29;20504;-72
2023/01/09 10:48:29;;;;;;;;;;;6.00;99.90;;;;;;4860086;29;19966;-72
2023/01/09 10:50:55;;;;;;;;;;;6.00;99.90;;;;;;4843872;29;20365;-71
2023/01/09 10:53:27;;;;;;;;;;;5.90;99.90;;;;;;4863561;29;20403;-71
2023/01/09 10:56:22;;;;;;;;;;;5.90;99.90;;;;;;4858544;29;19935;-71
2023/01/09 10:58:49;;;;;;;;;;;6.00;99.90;;;;;;4818997;29;19928;-71
2023/01/09 11:01:15;;;;;;;;;;;5.90;99.90;;;;;;4847002;29;19924;-71
2023/01/09 11:03:41;;;;;;;;;;;6.00;99.90;;;;;;4846781;29;20010;-71
2023/01/09 11:06:25;;;;;;;;;;;6.00;99.90;;;;;;4846196;29;20022;-72
2023/01/09 11:08:54;;;;;;;;;;;5.90;99.90;;;;;;4861373;29;20388;-72
2023/01/09 11:11:31;;;;;;;;;;;5.90;99.90;;;;;;4862210;29;20091;-72
2023/01/09 11:14:04;;;;;;;;;;;6.00;99.90;;;;;;4862011;29;20109;-72
2023/01/09 11:16:30;;;;;;;;;;;6.10;99.90;;;;;;4862081;29;20669;-72
2023/01/09 11:18:57;;;;;;;;;;;6.10;99.90;;;;;;4830922;29;19928;-72
2023/01/09 11:21:36;;;;;;;;;;;6.20;99.90;;;;;;4861594;29;19924;-72
2023/01/09 11:24:25;;;;;;;;;;;6.30;99.90;;;;;;4856059;29;19983;-72
2023/01/09 11:26:51;;;;;;;;;;;6.30;99.90;;;;;;4861002;29;19938;-72
2023/01/09 11:29:18;;;;;;;;;;;6.30;99.90;;;;;;4856853;29;19924;-72
2023/01/09 11:31:54;;;;;;;;;;;6.40;99.90;;;;;;4859962;29;19984;-72
2023/01/09 11:34:21;;;;;;;;;;;6.40;99.90;;;;;;4845751;29;19984;-72
2023/01/09 11:36:48;;;;;;;;;;;6.50;99.90;;;;;;4857676;29;19934;-72
2023/01/09 11:39:20;;;;;;;;;;;6.50;99.90;;;;;;4856310;29;19932;-72
2023/01/09 11:41:51;;;;;;;;;;;6.50;99.90;;;;;;4860595;29;20361;-72
2023/01/09 11:44:17;;;;;;;;;;;6.50;99.90;;;;;;4841316;29;19979;-72
2023/01/09 11:46:43;;;;;;;;;;;6.50;99.90;;;;;;4846335;29;19927;-72
2023/01/09 11:49:16;;;;;;;;;;;6.50;99.90;;;;;;4845789;29;20390;-72
2023/01/09 11:51:42;;;;;;;;;;;6.50;99.90;;;;;;4858536;29;19950;-72
2023/01/09 11:54:17;;;;;;;;;;;6.50;99.90;;;;;;4857661;29;19927;-72
2023/01/09 11:56:43;;;;;;;;;;;6.50;99.90;;;;;;4846084;29;19935;-72
2023/01/09 11:59:16;;;;;;;;;;;6.50;99.90;;;;;;4861684;29;19967;-72
2023/01/09 12:01:48;;;;;;;;;;;6.60;99.90;;;;;;4843170;29;20276;-72
2023/01/09 12:04:20;;;;;;;;;;;6.60;99.90;;;;;;4860837;29;19924;-72
2023/01/09 12:06:57;;;;;;;;;;;6.60;99.90;;;;;;4861294;29;19934;-72
2023/01/09 12:09:28;;;;;;;;;;;6.60;99.90;;;;;;4868265;29;20456;-72
2023/01/09 12:11:55;;;;;;;;;;;6.60;99.90;;;;;;4859270;29;19932;-71
2023/01/09 12:14:21;;;;;;;;;;;6.60;99.90;;;;;;4845703;29;19927;-71
2023/01/09 12:17:02;;;;;;;;;;;6.60;99.90;;;;;;4860586;29;19951;-71
2023/01/09 12:19:40;;;;;;;;;;;6.60;99.90;;;;;;4861252;29;20432;-71
2023/01/09 12:22:18;;;;;;;;;;;6.60;99.90;;;;;;4874773;29;20399;-71
2023/01/09 12:24:56;;;;;;;;;;;6.60;99.90;;;;;;4861400;29;19980;-71
2023/01/09 12:27:25;;;;;;;;;;;6.60;99.90;;;;;;4845963;29;20006;-71
2023/01/09 12:29:59;;;;;;;;;;;6.60;99.90;;;;;;4861217;29;20014;-72
2023/01/09 12:32:31;;;;;;;;;;;6.60;99.90;;;;;;4846814;29;20415;-72
2023/01/09 12:35:02;;;;;;;;;;;6.50;99.90;;;;;;4861152;29;19972;-72
2023/01/09 12:37:33;;;;;;;;;;;6.50;99.90;;;;;;4844158;29;19992;-72
2023/01/09 12:40:14;;;;;;;;;;;6.40;99.90;;;;;;4874939;29;20273;-72
2023/01/09 12:42:58;;;;;;;;;;;6.40;99.90;;;;;;4857858;29;19935;-72
2023/01/09 12:45:46;;;;;;;;;;;6.40;99.90;;;;;;4856891;29;19928;-72
2023/01/09 12:48:21;;;;;;;;;;;6.50;99.90;;;;;;4868735;29;19924;-72
2023/01/09 12:50:53;;;;;;;;;;;6.50;99.90;;;;;;4858301;29;20547;-72
2023/01/09 12:53:26;;;;;;;;;;;6.50;99.90;;;;;;4849604;29;19931;-72
2023/01/09 12:55:58;;;;;;;;;;;6.50;99.90;;;;;;4864454;29;20289;-72
2023/01/09 12:58:24;;;;;;;;;;;6.60;99.90;;;;;;4860077;29;20399;-72
2023/01/09 13:00:52;;;;;;;;;;;6.70;99.90;;;;;;4863300;29;19931;-72
2023/01/09 13:03:21;;;;;;;;;;;6.70;99.90;;;;;;4837739;29;20412;-72
2023/01/09 13:05:48;;;;;;;;;;;6.80;99.90;;;;;;4849424;29;19931;-72
2023/01/09 13:08:17;;;;;;;;;;;6.80;99.90;;;;;;4848744;29;19924;-72
2023/01/09 13:10:48;;;;;;;;;;;6.80;99.90;;;;;;4839551;29;19924;-72
2023/01/09 13:13:25;;;;;;;;;;;6.80;99.90;;;;;;4848954;29;19927;-72
2023/01/09 13:15:57;;;;;;;;;;;6.90;99.90;;;;;;4855182;29;19928;-72
2023/01/09 13:18:41;;;;;;;;;;;6.90;99.90;;;;;;4861604;29;19924;-72
2023/01/09 13:21:08;;;;;;;;;;;7.00;99.90;;;;;;4863550;29;20273;-72
2023/01/09 13:23:51;;;;;;;;;;;7.10;99.90;;;;;;4864687;29;20010;-71
2023/01/09 13:26:23;;;;;;;;;;;7.20;99.90;;;;;;4864247;29;19924;-72
2023/01/09 13:28:51;;;;;;;;;;;7.20;99.90;;;;;;4849173;29;19924;-72
2023/01/09 13:31:36;;;;;;;;;;;7.20;99.90;;;;;;4851224;29;20392;-72
2023/01/09 13:34:03;;;;;;;;;;;7.20;99.90;;;;;;4867464;29;19927;-72
2023/01/09 13:36:35;;;;;;;;;;;7.20;99.90;;;;;;4866126;29;19928;-72
2023/01/09 13:39:01;;;;;;;;;;;7.30;99.90;;;;;;4844315;29;19924;-71
2023/01/09 13:44:21;;;;;;;;;;;7.40;99.90;;;;;;4853169;29;19923;-71
2023/01/09 13:46:48;;;;;;;;;;;7.50;99.90;;;;;;4880181;29;19924;-71
2023/01/09 13:49:29;;;;;;;;;;;7.60;99.90;;;;;;4844884;29;19924;-71
2023/01/09 13:52:01;;;;;;;;;;;7.60;99.90;;;;;;4859585;29;20027;-72
2023/01/09 13:54:45;;;;;;;;;;;7.60;99.90;;;;;;4856085;29;19924;-71
2023/01/09 13:57:15;;;;;;;;;;;7.60;99.90;;;;;;4849752;29;19953;-71
2023/01/09 13:59:41;;;;;;;;;;;7.50;99.90;;;;;;4883598;29;19935;-71
2023/01/09 14:02:28;;;;;;;;;;;7.50;99.90;;;;;;4863964;29;19932;-72
2023/01/09 14:04:54;;;;;;;;;;;7.40;99.90;;;;;;4872016;29;20010;-72
2023/01/09 14:07:24;;;;;;;;;;;7.40;99.90;;;;;;4863412;29;20048;-71
2023/01/09 14:09:57;;;;;;;;;;;7.30;99.90;;;;;;4879044;29;20014;-71
2023/01/09 14:12:23;;;;;;;;;;;7.30;99.90;;;;;;4850324;29;19923;-71
2023/01/09 14:14:50;;;;;;;;;;;7.30;99.90;;;;;;4863051;29;19934;-71
2023/01/09 14:17:18;;;;;;;;;;;7.30;99.90;;;;;;4860936;29;20084;-70
2023/01/09 14:19:43;;;;;;;;;;;7.30;99.90;;;;;;4859315;29;19924;-71
2023/01/09 14:22:48;;;;;;;;;;;7.20;99.90;;;;;;4861116;29;20494;-71
2023/01/09 14:25:18;;;;;;;;;;;7.10;99.90;;;;;;4778223;29;19974;-71
2023/01/09 14:28:07;;;;;;;;;;;7.00;99.90;;;;;;4801759;29;19929;-71
2023/01/09 14:30:51;;;;;;;;;;;6.90;99.90;;;;;;4845883;29;19962;-71
2023/01/09 14:33:17;;;;;;;;;;;6.90;99.90;;;;;;4861614;29;19924;-72
2023/01/09 14:35:55;;;;;;;;;;;6.80;99.90;;;;;;4861036;29;20694;-72
2023/01/09 14:38:20;;;;;;;;;;;6.80;99.90;;;;;;4859298;29;19936;-70
2023/01/09 14:40:49;;;;;;;;;;;6.80;99.90;;;;;;4841079;29;19931;-70
2023/01/09 14:43:22;;;;;;;;;;;6.70;99.90;;;;;;4858115;29;19990;-70
2023/01/09 14:45:48;;;;;;;;;;;6.80;99.90;;;;;;4855976;29;19924;-70
2023/01/09 14:48:15;;;;;;;;;;;6.80;99.90;;;;;;4842704;29;20011;-70
2023/01/09 14:50:45;;;;;;;;;;;6.80;99.90;;;;;;4842893;29;20308;-70
2023/01/09 14:53:10;;;;;;;;;;;6.80;99.90;;;;;;4856828;29;19978;-70
2023/01/09 14:55:50;;;;;;;;;;;6.70;99.90;;;;;;4850685;29;19962;-70